Opa-locka Executive Airport
KOPF : rendu visible

Aérodrome :











RETROUVEZ-NOUS SUR...

 
LOGIN :

S'inscrire | Disclaimer

   EN    FR    IT 

 









Légende :    VFR   VFR Marginal   IFR   IFR Intensif   IFR Très Intensif
Visi : 
Plafond : 
>= 8 km
>= 3000ft
5 à 8 km
1000 à 3000 ft
1500m à 5 km
500 à 1000 ft
800 à 1500m
200 à 500 ft
< 800m
< 200 ft
Symboles :   Orages  Brouillard  Fortes neiges  Fortes précipitations  Vent > 20 kt






- Altitude de l'aérodrome : 8 ft


KOPF - Opa-locka Executive

DERNIER METAR :
  • 290853Z AUTO 12008KT 10SM FEW021 23/20 A3007 RMK AO2 SLP182 T02330200 55004

METARs EXPIRÉS :
  • 290819Z AUTO 12006KT 10SM BKN020 24/21 A3006 RMK AO2 T02390206
  • 290753Z AUTO 12008KT 10SM CLR 24/20 A3006 RMK AO2 SLP178 T02390200
  • 290653Z AUTO 13010KT 10SM CLR 24/21 A3006 RMK AO2 SLP180 T02440206

TAF KOPF
Valide du 29 à 09h jusqu'au 30 à 06h UTC


290853Z 2909/3006 13006KT P6SM SCT020
TEMPO 2909/2912 6SM BR BCFG BKN020
FM291400 14012KT P6SM SCT025 SCT035
FM300200 12006KT P6SM SCT030



MET'MAP, la Météo Aéronautique d'un coup d'oeil ! - Copyright ORBIFLY Décembre 2007 - Disclaimer

ORBIFLY MET'MAP TEAM :

Programmation & Développement : Alexandra Zaïnal
Sur une idée originale de : Baudouin d'Aumeries
Assistance à la programmation : Marc-Olivier Méhu
Soutien technique & logistique : Manuel Goepfert

Contact : metmap@orbifly.com




SOURCES & CREDITS :

   NOAA       Earth
Advisory